createdAt,value
2023-05-25T00:01:34.337Z,6.80
2023-05-25T00:04:03.014Z,7.60
2023-05-25T00:06:31.135Z,7.10
2023-05-25T00:08:59.463Z,7.20
2023-05-25T00:11:28.722Z,7.30
2023-05-25T00:13:56.590Z,8.10
2023-05-25T00:16:24.498Z,7.50
2023-05-25T00:18:53.149Z,7.60
2023-05-25T00:21:21.127Z,7.60
2023-05-25T00:23:49.035Z,7.60
2023-05-25T00:26:16.932Z,8.00
2023-05-25T00:28:46.186Z,7.60
2023-05-25T00:31:14.196Z,7.60
2023-05-25T00:33:42.193Z,7.60
2023-05-25T00:36:10.253Z,7.60
2023-05-25T00:38:38.139Z,7.60
2023-05-25T00:41:06.836Z,7.50
2023-05-25T00:43:34.782Z,7.50
2023-05-25T00:46:04.494Z,7.50
2023-05-25T00:48:32.906Z,7.50
2023-05-25T00:51:01.479Z,7.40
2023-05-25T00:53:29.437Z,7.30
2023-05-25T00:56:04.857Z,7.30
2023-05-25T00:58:37.220Z,8.40
2023-05-25T01:01:11.705Z,7.10
2023-05-25T01:03:45.482Z,7.00
2023-05-25T01:06:15.984Z,6.90
2023-05-25T01:08:50.958Z,7.70
2023-05-25T01:11:23.076Z,7.80
2023-05-25T01:13:53.654Z,7.00
2023-05-25T01:16:23.260Z,7.10
2023-05-25T01:18:52.590Z,7.10
2023-05-25T01:21:27.082Z,7.20
2023-05-25T01:24:02.299Z,7.20
2023-05-25T01:26:35.375Z,7.30
2023-05-25T01:29:04.258Z,7.40
2023-05-25T01:31:34.301Z,7.40
2023-05-25T01:34:02.372Z,7.50
2023-05-25T01:36:31.749Z,7.60
2023-05-25T01:39:00.056Z,7.60
2023-05-25T01:41:27.952Z,7.70
2023-05-25T01:43:55.937Z,7.80
2023-05-25T01:46:35.405Z,7.80
2023-05-25T01:49:13.445Z,7.90
2023-05-25T01:51:52.599Z,8.00
2023-05-25T01:54:22.966Z,8.00
2023-05-25T01:56:53.426Z,8.10
2023-05-25T01:59:22.976Z,8.10
2023-05-25T02:01:53.381Z,8.60
2023-05-25T02:04:23.120Z,8.20
2023-05-25T02:06:52.862Z,8.20
2023-05-25T02:09:20.753Z,8.20
2023-05-25T02:11:48.714Z,8.20
2023-05-25T02:14:17.313Z,8.20
2023-05-25T02:16:46.836Z,8.30
2023-05-25T02:19:15.230Z,8.30
2023-05-25T02:21:43.251Z,8.30
2023-05-25T02:24:12.560Z,8.40
2023-05-25T02:26:40.753Z,8.40
2023-05-25T02:29:08.657Z,8.40
2023-05-25T02:31:36.616Z,8.40
2023-05-25T02:34:04.526Z,8.40
2023-05-25T02:36:32.432Z,8.40
2023-05-25T02:39:00.370Z,8.50
2023-05-25T02:41:29.623Z,8.50
2023-05-25T02:43:58.076Z,8.50
2023-05-25T02:46:26.038Z,8.50
2023-05-25T02:48:54.006Z,8.50
2023-05-25T02:51:21.913Z,8.60
2023-05-25T02:53:49.780Z,8.60
2023-05-25T02:56:17.685Z,8.60
2023-05-25T02:58:46.902Z,8.70
2023-05-25T03:01:18.268Z,8.70
2023-05-25T03:03:47.188Z,8.70
2023-05-25T03:06:16.016Z,8.80
2023-05-25T03:08:44.118Z,8.80
2023-05-25T03:11:12.021Z,8.90
2023-05-25T03:13:39.936Z,8.90
2023-05-25T03:16:09.446Z,8.90
2023-05-25T03:18:37.540Z,9.00
2023-05-25T03:21:05.846Z,9.00
2023-05-25T03:23:33.803Z,9.00
2023-05-25T03:26:01.782Z,9.50
2023-05-25T03:28:29.660Z,9.10
2023-05-25T03:30:57.639Z,9.00
2023-05-25T03:33:26.945Z,9.80
2023-05-25T03:35:54.830Z,9.10
2023-05-25T03:38:22.735Z,9.10
2023-05-25T03:40:50.647Z,9.10
2023-05-25T03:43:18.646Z,9.20
2023-05-25T03:45:46.798Z,9.20
2023-05-25T03:48:14.878Z,9.20
2023-05-25T03:50:44.107Z,9.20
2023-05-25T03:53:11.972Z,9.20
2023-05-25T03:55:39.911Z,9.20
2023-05-25T03:58:09.962Z,9.20
2023-05-25T04:00:37.915Z,9.20
2023-05-25T04:03:06.907Z,9.10
2023-05-25T04:05:34.995Z,9.20
2023-05-25T04:08:04.309Z,9.20
2023-05-25T04:10:32.213Z,9.20
2023-05-25T04:13:00.123Z,9.20
2023-05-25T04:15:28.046Z,9.20
2023-05-25T04:17:56.029Z,9.20
2023-05-25T04:20:24.125Z,9.20
2023-05-25T04:22:52.024Z,9.30
2023-05-25T04:25:21.271Z,9.20
2023-05-25T04:27:49.184Z,9.20
2023-05-25T04:30:17.268Z,9.30
2023-05-25T04:32:46.537Z,9.30
2023-05-25T04:35:15.434Z,9.30
2023-05-25T04:37:43.369Z,9.40
2023-05-25T04:40:13.940Z,9.40
2023-05-25T04:42:43.331Z,9.50
2023-05-25T04:45:11.846Z,9.50
2023-05-25T04:47:41.155Z,9.60
2023-05-25T04:50:11.440Z,9.60
2023-05-25T04:52:39.350Z,9.70
2023-05-25T04:55:08.142Z,9.70
2023-05-25T04:57:36.070Z,9.70
2023-05-25T05:00:07.682Z,9.60
2023-05-25T05:02:35.828Z,9.80
2023-05-25T05:05:03.903Z,9.80
2023-05-25T05:07:31.863Z,9.80
2023-05-25T05:09:59.865Z,9.90
2023-05-25T05:12:27.750Z,9.90
2023-05-25T05:14:55.991Z,10.00
2023-05-25T05:17:26.361Z,10.00
2023-05-25T05:19:54.440Z,10.00
2023-05-25T05:22:22.360Z,10.10
2023-05-25T05:24:50.865Z,10.20
2023-05-25T05:27:20.701Z,10.20
2023-05-25T05:29:48.593Z,10.30
2023-05-25T05:32:16.447Z,10.30
2023-05-25T05:34:45.766Z,10.30
2023-05-25T05:37:13.695Z,10.30
2023-05-25T05:39:41.596Z,10.40
2023-05-25T05:42:09.537Z,10.30
2023-05-25T05:44:37.560Z,10.30
2023-05-25T05:47:08.521Z,10.40
2023-05-25T05:49:37.859Z,10.40
2023-05-25T05:52:07.707Z,10.40
2023-05-25T05:54:35.949Z,10.40
2023-05-25T05:57:03.929Z,10.40
2023-05-25T05:59:31.830Z,10.40
2023-05-25T06:01:59.801Z,10.40
2023-05-25T06:04:29.027Z,10.50
2023-05-25T06:06:57.187Z,11.50
2023-05-25T06:09:27.230Z,10.60
2023-05-25T06:11:55.105Z,10.80
2023-05-25T06:14:23.120Z,10.90
2023-05-25T06:16:51.178Z,11.00
2023-05-25T06:19:19.169Z,11.10
2023-05-25T06:21:47.092Z,11.20
2023-05-25T06:24:16.281Z,11.30
2023-05-25T06:26:45.648Z,11.50
2023-05-25T06:29:16.112Z,11.60
2023-05-25T06:31:44.912Z,11.70
2023-05-25T06:34:12.894Z,11.80
2023-05-25T06:36:41.785Z,11.80
2023-05-25T06:39:10.141Z,11.90
2023-05-25T06:41:40.432Z,12.00
2023-05-25T06:44:09.762Z,12.10
2023-05-25T06:46:39.156Z,12.20
2023-05-25T06:49:07.208Z,12.20
2023-05-25T06:51:35.078Z,12.30
2023-05-25T06:54:03.188Z,12.30
2023-05-25T06:56:32.247Z,12.30
2023-05-25T06:59:00.166Z,12.30
2023-05-25T07:01:29.435Z,12.20
2023-05-25T07:03:57.316Z,12.30
2023-05-25T07:06:25.231Z,12.40
2023-05-25T07:08:53.106Z,12.60
2023-05-25T07:11:22.006Z,12.70
2023-05-25T07:13:50.056Z,12.80
2023-05-25T07:16:18.007Z,12.80
2023-05-25T07:18:47.785Z,12.80
2023-05-25T07:21:15.691Z,12.80
2023-05-25T07:23:43.646Z,12.80
2023-05-25T07:26:11.541Z,12.80
2023-05-25T07:28:39.438Z,12.80
2023-05-25T07:31:07.363Z,12.90
2023-05-25T07:33:35.280Z,13.00
2023-05-25T07:36:04.734Z,13.10
2023-05-25T07:38:32.628Z,13.20
2023-05-25T07:41:00.594Z,13.20
2023-05-25T07:43:28.732Z,13.30
2023-05-25T07:45:56.739Z,13.30
2023-05-25T07:48:24.740Z,13.20
2023-05-25T07:50:52.647Z,13.10
2023-05-25T07:53:22.369Z,13.10
2023-05-25T07:55:50.781Z,13.20
2023-05-25T07:58:18.670Z,13.00
2023-05-25T08:00:46.552Z,12.90
2023-05-25T08:03:14.635Z,13.10
2023-05-25T08:05:44.249Z,13.10
2023-05-25T08:08:12.377Z,13.20
2023-05-25T08:10:41.602Z,13.20
2023-05-25T08:13:09.527Z,13.20
2023-05-25T08:15:37.543Z,13.30
2023-05-25T08:18:06.486Z,13.20
2023-05-25T08:20:34.916Z,13.10
2023-05-25T08:23:02.862Z,13.00
2023-05-25T08:25:30.783Z,13.00
2023-05-25T08:28:00.029Z,13.10
2023-05-25T08:30:28.278Z,13.20
2023-05-25T08:32:56.249Z,13.30
2023-05-25T08:35:24.191Z,13.40
2023-05-25T08:37:52.139Z,13.40
2023-05-25T08:40:23.504Z,13.50
2023-05-25T08:42:51.448Z,13.50
2023-05-25T08:45:34.077Z,13.50
2023-05-25T08:48:09.224Z,13.60
2023-05-25T08:50:39.642Z,13.70
2023-05-25T08:53:11.720Z,13.80
2023-05-25T08:55:42.115Z,13.90
2023-05-25T08:58:16.162Z,13.80
2023-05-25T09:00:52.430Z,13.80
2023-05-25T09:03:21.973Z,13.80
2023-05-25T09:05:51.073Z,13.80
2023-05-25T09:08:19.581Z,13.90
2023-05-25T09:10:48.057Z,14.30
2023-05-25T09:15:48.719Z,14.90
2023-05-25T09:18:16.687Z,15.20
2023-05-25T09:20:47.028Z,15.40
2023-05-25T09:23:15.968Z,15.60
2023-05-25T09:25:44.793Z,15.60
2023-05-25T09:30:43.684Z,15.50
2023-05-25T09:33:14.042Z,15.50
2023-05-25T09:35:42.444Z,15.60
2023-05-25T09:38:10.495Z,15.60
2023-05-25T09:40:39.531Z,15.70
2023-05-25T09:43:07.695Z,15.80
2023-05-25T09:45:37.969Z,16.00
2023-05-25T09:48:08.038Z,16.10
2023-05-25T09:50:37.592Z,16.10
2023-05-25T09:53:05.692Z,15.90
2023-05-25T09:55:48.058Z,15.90
2023-05-25T09:58:19.840Z,16.00
2023-05-25T10:00:48.226Z,16.00
2023-05-25T10:03:16.999Z,16.10
2023-05-25T10:05:46.981Z,15.90
2023-05-25T10:08:15.160Z,15.60
2023-05-25T10:10:44.167Z,15.60
2023-05-25T10:13:13.688Z,15.60
2023-05-25T10:15:43.257Z,15.70
2023-05-25T10:18:14.636Z,15.80
2023-05-25T10:20:43.896Z,16.00
2023-05-25T10:23:17.715Z,16.10
2023-05-25T10:25:47.842Z,16.00
2023-05-25T10:28:29.690Z,16.00
2023-05-25T10:30:58.583Z,16.20
2023-05-25T10:33:26.532Z,16.40
2023-05-25T10:36:02.943Z,16.40
2023-05-25T10:38:41.899Z,16.60
2023-05-25T10:41:11.533Z,16.90
2023-05-25T10:43:40.956Z,16.90
2023-05-25T10:46:09.515Z,16.80
2023-05-25T10:48:39.874Z,16.80
2023-05-25T10:51:10.231Z,16.50
2023-05-25T10:53:44.988Z,16.40
2023-05-25T10:56:14.263Z,16.60
2023-05-25T10:58:44.300Z,16.80
2023-05-25T11:01:14.557Z,16.70
2023-05-25T11:03:55.730Z,16.80
2023-05-25T11:06:44.931Z,16.80
2023-05-25T11:09:27.476Z,16.70
2023-05-25T11:12:05.162Z,16.80
2023-05-25T11:14:37.103Z,17.00
2023-05-25T11:17:10.528Z,17.20
2023-05-25T11:19:42.435Z,17.70
2023-05-25T11:22:17.913Z,17.70
2023-05-25T11:24:47.741Z,17.70
2023-05-25T11:27:16.139Z,17.40
2023-05-25T11:29:44.563Z,17.60
2023-05-25T11:32:16.163Z,17.80
2023-05-25T11:34:46.652Z,18.00
2023-05-25T11:37:17.562Z,17.90
2023-05-25T11:39:49.581Z,18.10
2023-05-25T11:42:19.584Z,18.60
2023-05-25T11:44:47.546Z,18.90
2023-05-25T11:47:18.712Z,18.90
2023-05-25T11:49:49.738Z,19.00
2023-05-25T11:52:19.764Z,18.90
2023-05-25T11:54:49.308Z,18.80
2023-05-25T11:57:19.023Z,18.80
2023-05-25T11:59:50.875Z,19.10
2023-05-25T12:02:19.359Z,18.70
2023-05-25T12:04:55.431Z,18.60
2023-05-25T12:07:23.641Z,18.60
2023-05-25T12:09:53.065Z,18.70
2023-05-25T12:12:21.268Z,18.60
2023-05-25T12:14:49.776Z,18.50
2023-05-25T12:17:18.666Z,18.40
2023-05-25T12:19:47.452Z,18.30
2023-05-25T12:22:16.347Z,18.20
2023-05-25T12:24:44.448Z,18.00
2023-05-25T12:27:20.381Z,17.80
2023-05-25T12:29:49.130Z,17.80
2023-05-25T12:32:17.237Z,17.60
2023-05-25T12:34:45.188Z,17.90
2023-05-25T12:37:20.120Z,17.80
2023-05-25T12:39:48.379Z,18.10
2023-05-25T12:42:17.739Z,18.40
2023-05-25T12:44:47.334Z,18.60
2023-05-25T12:47:16.865Z,18.60
2023-05-25T12:49:45.962Z,19.00
2023-05-25T12:52:33.248Z,19.00
2023-05-25T12:55:19.451Z,19.00
2023-05-25T12:57:52.273Z,19.20
2023-05-25T13:00:23.559Z,19.30
2023-05-25T13:02:51.967Z,19.30
2023-05-25T13:05:25.017Z,19.30
2023-05-25T13:07:54.263Z,19.30
2023-05-25T13:10:22.562Z,19.60
2023-05-25T13:12:51.702Z,19.90
2023-05-25T13:15:22.065Z,20.10
2023-05-25T13:17:51.376Z,20.20
2023-05-25T13:20:20.799Z,20.40
2023-05-25T13:22:51.066Z,20.50
2023-05-25T13:25:19.186Z,20.60
2023-05-25T13:27:48.560Z,20.20
2023-05-25T13:30:17.291Z,19.80
2023-05-25T13:32:48.027Z,19.70
2023-05-25T13:35:23.916Z,19.50
2023-05-25T13:37:51.981Z,19.60
2023-05-25T13:40:19.993Z,19.70
2023-05-25T13:42:47.861Z,19.40
2023-05-25T13:45:15.825Z,19.20
2023-05-25T13:47:44.924Z,19.30
2023-05-25T13:50:14.361Z,19.60
2023-05-25T13:52:42.245Z,19.70
2023-05-25T13:55:10.138Z,19.60
2023-05-25T13:57:37.999Z,19.40
2023-05-25T14:00:07.684Z,19.40
2023-05-25T14:02:36.655Z,19.20
2023-05-25T14:05:05.219Z,19.30
2023-05-25T14:07:34.492Z,19.30
2023-05-25T14:10:02.362Z,19.30
2023-05-25T14:12:30.328Z,19.40
2023-05-25T14:14:58.253Z,19.40
2023-05-25T14:17:26.205Z,19.70
2023-05-25T14:19:54.147Z,19.90
2023-05-25T14:22:22.102Z,19.80
2023-05-25T14:24:51.447Z,19.70
2023-05-25T14:27:21.190Z,19.60
2023-05-25T14:29:49.304Z,19.20
2023-05-25T14:32:17.576Z,19.00
2023-05-25T14:34:46.001Z,19.20
2023-05-25T14:37:14.027Z,19.60
2023-05-25T14:39:42.013Z,19.60
2023-05-25T14:42:11.303Z,19.60
2023-05-25T14:44:39.195Z,19.40
2023-05-25T14:47:07.562Z,19.00
2023-05-25T14:49:35.674Z,18.70
2023-05-25T14:52:03.879Z,18.60
2023-05-25T14:54:31.815Z,18.70
2023-05-25T14:56:59.887Z,18.80
2023-05-25T14:59:29.126Z,18.80
2023-05-25T15:01:57.049Z,19.00
2023-05-25T15:04:26.488Z,19.30
2023-05-25T15:06:54.514Z,19.60
2023-05-25T15:09:22.700Z,19.70
2023-05-25T15:11:50.602Z,19.90
2023-05-25T15:14:18.476Z,19.60
2023-05-25T15:16:47.873Z,19.50
2023-05-25T15:19:17.668Z,19.50
2023-05-25T15:21:45.828Z,19.30
2023-05-25T15:24:16.561Z,19.20
2023-05-25T15:26:44.967Z,19.10
2023-05-25T15:29:12.895Z,19.00
2023-05-25T15:31:41.409Z,19.10
2023-05-25T15:34:11.099Z,19.20
2023-05-25T15:36:39.080Z,18.90
2023-05-25T15:39:08.923Z,18.60
2023-05-25T15:41:36.929Z,18.20
2023-05-25T15:44:08.197Z,18.00
2023-05-25T15:46:36.291Z,17.70
2023-05-25T15:49:10.675Z,17.80
2023-05-25T15:51:44.396Z,17.50
2023-05-25T15:54:14.692Z,17.60
2023-05-25T15:56:42.991Z,17.50
2023-05-25T15:59:12.130Z,17.40
2023-05-25T16:01:40.150Z,17.40
2023-05-25T16:04:08.193Z,17.40
2023-05-25T16:06:36.278Z,17.30
2023-05-25T16:09:05.803Z,17.30
2023-05-25T16:11:34.085Z,17.30
2023-05-25T16:14:02.008Z,17.40
2023-05-25T16:16:29.997Z,17.50
2023-05-25T16:18:58.046Z,17.60
2023-05-25T16:21:26.003Z,17.60
2023-05-25T16:23:53.915Z,17.50
2023-05-25T16:26:23.691Z,17.40
2023-05-25T16:28:51.572Z,17.30
2023-05-25T16:31:19.587Z,17.40
2023-05-25T16:33:47.878Z,17.50
2023-05-25T16:36:17.002Z,17.50
2023-05-25T16:38:45.650Z,17.80
2023-05-25T16:41:13.627Z,17.80
2023-05-25T16:43:42.834Z,17.80
2023-05-25T16:46:11.516Z,17.70
2023-05-25T16:48:39.541Z,17.60
2023-05-25T16:51:08.129Z,17.60
2023-05-25T16:53:36.032Z,17.50
2023-05-25T16:56:03.947Z,17.60
2023-05-25T16:58:31.868Z,17.60
2023-05-25T17:01:01.211Z,17.60
2023-05-25T17:03:29.358Z,17.50
2023-05-25T17:05:57.295Z,17.40
2023-05-25T17:08:25.206Z,17.30
2023-05-25T17:10:53.548Z,17.40
2023-05-25T17:13:21.992Z,17.40
2023-05-25T17:15:50.179Z,17.10
2023-05-25T17:18:19.466Z,17.00
2023-05-25T17:20:47.430Z,16.90
2023-05-25T17:23:16.791Z,16.70
2023-05-25T17:25:45.023Z,16.60
2023-05-25T17:28:13.155Z,16.50
2023-05-25T17:30:41.050Z,16.40
2023-05-25T17:33:09.098Z,16.40
2023-05-25T17:35:38.551Z,16.10
2023-05-25T17:38:06.437Z,16.20
2023-05-25T17:40:34.467Z,16.00
2023-05-25T17:43:02.412Z,16.20
2023-05-25T17:45:30.390Z,15.90
2023-05-25T17:47:58.769Z,15.70
2023-05-25T17:50:26.863Z,15.80
2023-05-25T17:52:56.302Z,15.60
2023-05-25T17:55:24.208Z,15.60
2023-05-25T17:57:52.098Z,15.50
2023-05-25T18:00:22.983Z,15.60
2023-05-25T18:02:51.971Z,15.40
2023-05-25T18:05:20.172Z,15.40
2023-05-25T18:07:48.048Z,15.30
2023-05-25T18:10:17.406Z,15.10
2023-05-25T18:12:46.235Z,15.00
2023-05-25T18:15:14.152Z,14.90
2023-05-25T18:17:42.278Z,14.80
2023-05-25T18:20:11.491Z,14.70
2023-05-25T18:22:39.442Z,14.70
2023-05-25T18:25:08.039Z,14.70
2023-05-25T18:27:37.353Z,14.60
2023-05-25T18:30:05.894Z,14.60
2023-05-25T18:32:33.839Z,14.50
2023-05-25T18:35:01.854Z,14.40
2023-05-25T18:37:34.051Z,14.30
2023-05-25T18:40:01.975Z,14.20
2023-05-25T18:42:29.924Z,14.10
2023-05-25T18:44:59.211Z,14.00
2023-05-25T18:47:27.480Z,13.90
2023-05-25T18:49:55.692Z,13.80
2023-05-25T18:52:23.582Z,13.70
2023-05-25T18:54:51.516Z,14.00
2023-05-25T18:57:19.706Z,13.60
2023-05-25T18:59:47.624Z,13.50
2023-05-25T19:02:16.863Z,13.50
2023-05-25T19:04:44.852Z,13.40
2023-05-25T19:07:12.806Z,13.30
2023-05-25T19:09:40.738Z,13.20
2023-05-25T19:12:09.256Z,13.10
2023-05-25T19:14:37.270Z,13.00
2023-05-25T19:17:05.320Z,13.00
2023-05-25T19:19:34.538Z,12.90
2023-05-25T19:22:02.515Z,12.80
2023-05-25T19:24:30.383Z,12.70
2023-05-25T19:26:58.283Z,12.60
2023-05-25T19:29:26.340Z,12.50
2023-05-25T19:31:54.289Z,12.50
2023-05-25T19:34:22.262Z,12.40
2023-05-25T19:37:00.138Z,12.30
2023-05-25T19:39:38.412Z,12.40
2023-05-25T19:42:06.553Z,12.20
2023-05-25T19:44:34.548Z,12.20
2023-05-25T19:47:02.502Z,12.10
2023-05-25T19:49:30.732Z,12.00
2023-05-25T19:51:59.985Z,11.90
2023-05-25T19:54:27.902Z,11.90
2023-05-25T19:56:55.827Z,11.80
2023-05-25T19:59:27.745Z,11.80
2023-05-25T20:01:56.078Z,11.70
2023-05-25T20:04:24.240Z,11.70
2023-05-25T20:06:52.796Z,11.60
2023-05-25T20:09:29.809Z,11.60
2023-05-25T20:11:58.206Z,11.50
2023-05-25T20:14:26.288Z,11.50
2023-05-25T20:16:55.612Z,11.40
2023-05-25T20:19:23.595Z,11.30
2023-05-25T20:21:51.564Z,11.30
2023-05-25T20:24:22.048Z,11.20
2023-05-25T20:26:50.127Z,11.10
2023-05-25T20:29:18.049Z,11.00
2023-05-25T20:31:45.958Z,11.00
2023-05-25T20:34:13.909Z,10.90
2023-05-25T20:36:41.770Z,10.90
2023-05-25T20:39:09.643Z,10.90
2023-05-25T20:41:38.927Z,10.80
2023-05-25T20:44:07.403Z,10.70
2023-05-25T20:46:35.537Z,10.70
2023-05-25T20:49:04.088Z,10.60
2023-05-25T20:51:32.607Z,10.60
2023-05-25T20:54:00.734Z,10.60
2023-05-25T20:56:28.605Z,10.50
2023-05-25T20:58:57.919Z,10.40
2023-05-25T21:01:25.868Z,10.30
2023-05-25T21:03:53.902Z,10.30
2023-05-25T21:06:22.549Z,10.20
2023-05-25T21:08:50.478Z,10.20
2023-05-25T21:11:18.388Z,10.10
2023-05-25T21:13:46.280Z,10.10
2023-05-25T21:16:15.826Z,10.10
2023-05-25T21:18:43.765Z,10.00
2023-05-25T21:21:11.923Z,10.00
2023-05-25T21:23:39.839Z,9.90
2023-05-25T21:26:07.752Z,9.90
2023-05-25T21:28:35.635Z,9.80
2023-05-25T21:31:03.550Z,9.80
2023-05-25T21:33:35.761Z,9.70
2023-05-25T21:36:04.261Z,9.70
2023-05-25T21:38:32.160Z,9.70
2023-05-25T21:41:00.150Z,9.60
2023-05-25T21:43:28.130Z,9.60
2023-05-25T21:45:56.044Z,9.50
2023-05-25T21:48:24.195Z,9.50
2023-05-25T21:50:53.820Z,9.40
2023-05-25T21:53:22.314Z,9.40
2023-05-25T21:55:52.697Z,9.30
2023-05-25T21:58:21.062Z,9.30
2023-05-25T22:00:49.025Z,9.30
2023-05-25T22:03:17.095Z,9.30
2023-05-25T22:05:45.219Z,9.20
2023-05-25T22:08:14.720Z,9.20
2023-05-25T22:10:42.598Z,9.10
2023-05-25T22:13:10.462Z,9.10
2023-05-25T22:15:38.418Z,9.10
2023-05-25T22:18:06.764Z,9.00
2023-05-25T22:20:38.319Z,9.10
2023-05-25T22:23:06.602Z,9.00
2023-05-25T22:25:35.864Z,9.00
2023-05-25T22:28:03.768Z,8.90
2023-05-25T22:30:31.734Z,9.40
2023-05-25T22:32:59.695Z,8.90
2023-05-25T22:35:27.669Z,8.80
2023-05-25T22:37:55.728Z,8.80
2023-05-25T22:40:23.681Z,9.00
2023-05-25T22:42:52.919Z,8.70
2023-05-25T22:45:22.267Z,8.70
2023-05-25T22:47:50.199Z,8.60
2023-05-25T22:50:18.166Z,8.50
2023-05-25T22:52:46.081Z,8.50
2023-05-25T22:55:14.031Z,8.50
2023-05-25T22:57:42.001Z,8.40
2023-05-25T23:00:12.347Z,8.40
2023-05-25T23:02:40.284Z,8.30
2023-05-25T23:05:09.683Z,8.20
2023-05-25T23:07:37.623Z,8.20
2023-05-25T23:10:06.172Z,8.10
2023-05-25T23:12:34.043Z,8.10
2023-05-25T23:15:02.578Z,8.00
2023-05-25T23:17:32.581Z,7.90
2023-05-25T23:20:01.823Z,7.80
2023-05-25T23:22:29.795Z,7.80
2023-05-25T23:24:57.731Z,8.20
2023-05-25T23:27:25.824Z,7.60
2023-05-25T23:29:53.839Z,7.60
2023-05-25T23:32:21.978Z,7.50
2023-05-25T23:34:51.438Z,7.90
2023-05-25T23:37:19.328Z,7.40
2023-05-25T23:39:47.235Z,7.40
2023-05-25T23:42:16.703Z,7.30
2023-05-25T23:44:44.618Z,7.20
2023-05-25T23:47:12.808Z,7.20
2023-05-25T23:49:40.709Z,7.10
2023-05-25T23:52:09.973Z,7.10
2023-05-25T23:54:37.846Z,7.10
2023-05-25T23:57:06.076Z,7.20
2023-05-25T23:59:33.947Z,7.10
